Time;durP1;ratioP1;P1;durP2;ratioP2;P2;SDS_P1;SDS_P2;PMS_P1;PMS_P2;Temp;Humidity;BMP_temperature;BMP_pressure;BME280_temperature;BME280_humidity;BME280_pressure;Samples;Min_cycle;Max_cycle;Signal;HPM_P1;HPM_P2
2022/09/19 00:00:37;;;;;;;;;;;;;;;14.12;55.25;99136.94;4422322;32;33502;-80
2022/09/19 00:03:06;;;;;;;;;;;;;;;14.25;54.08;99138.19;4431776;32;36293;-83
2022/09/19 00:05:38;;;;;;;;;;;;;;;13.99;54.10;99144.38;4430654;32;33116;-83
2022/09/19 00:08:07;;;;;;;;;;;;;;;14.26;54.52;99136.47;4432386;32;33719;-83
2022/09/19 00:10:43;;;;;;;;;;;;;;;14.25;54.23;99127.75;4435342;32;34146;-84
2022/09/19 00:13:19;;;;;;;;;;;;;;;14.36;53.58;99124.75;4434414;32;34227;-84
2022/09/19 00:15:50;;;;;;;;;;;;;;;14.23;53.95;99118.28;4430598;32;33256;-84
2022/09/19 00:18:19;;;;;;;;;;;;;;;14.14;53.78;99106.44;4430954;32;34364;-82
2022/09/19 00:20:52;;;;;;;;;;;;;;;14.11;53.80;99109.19;4432706;32;33742;-85
2022/09/19 00:26:07;;;;;;;;;;;;;;;14.22;53.58;99099.19;4433260;32;32868;-83
2022/09/19 00:28:37;;;;;;;;;;;;;;;14.29;53.60;99094.59;4433609;32;33883;-83
2022/09/19 00:31:07;;;;;;;;;;;;;;;14.22;53.68;99090.50;4433245;32;34160;-82
2022/09/19 00:33:44;;;;;;;;;;;;;;;14.23;54.28;99087.84;4431825;32;34196;-84
2022/09/19 00:36:13;;;;;;;;;;;;;;;14.29;53.47;99081.53;4437351;32;34538;-83
2022/09/19 00:38:49;;;;;;;;;;;;;;;14.32;53.82;99086.63;4434049;32;33602;-82
2022/09/19 00:41:25;;;;;;;;;;;;;;;14.36;54.16;99079.56;4433918;32;34068;-84
2022/09/19 00:43:54;;;;;;;;;;;;;;;14.29;54.05;99078.94;4433390;32;34445;-83
2022/09/19 00:46:26;;;;;;;;;;;;;;;14.44;54.01;99075.72;4433563;32;34451;-83
2022/09/19 00:48:56;;;;;;;;;;;;;;;14.52;53.19;99085.84;4437651;32;33098;-85
2022/09/19 00:51:28;;;;;;;;;;;;;;;14.47;53.52;99086.06;4436490;32;34943;-81
2022/09/19 00:53:57;;;;;;;;;;;;;;;14.52;53.21;99086.72;4433400;32;33638;-82
2022/09/19 00:56:25;;;;;;;;;;;;;;;14.49;53.35;99089.44;4432350;32;33673;-84
2022/09/19 00:58:54;;;;;;;;;;;;;;;14.71;52.24;99088.63;4433167;32;34245;-82
2022/09/19 01:01:26;;;;;;;;;;;;;;;14.42;53.14;99093.19;4412289;32;34142;-82
2022/09/19 01:03:57;;;;;;;;;;;;;;;14.43;53.16;99086.25;4427034;32;34089;-85
2022/09/19 01:06:35;;;;;;;;;;;;;;;14.37;53.39;99082.09;4431313;32;33980;-83
2022/09/19 01:09:08;;;;;;;;;;;;;;;14.32;52.80;99081.41;4433775;32;34280;-84
2022/09/19 01:11:56;;;;;;;;;;;;;;;14.21;53.41;99071.41;4436298;32;33722;-82
2022/09/19 01:14:28;;;;;;;;;;;;;;;14.53;51.95;99084.97;4435996;32;33633;-82
2022/09/19 01:17:06;;;;;;;;;;;;;;;14.35;52.58;99083.06;4432753;32;33208;-82
2022/09/19 01:19:47;;;;;;;;;;;;;;;13.88;53.42;99089.16;4432569;32;33174;-83
2022/09/19 01:22:18;;;;;;;;;;;;;;;14.34;52.58;99089.19;4432912;32;33977;-84
2022/09/19 01:24:52;;;;;;;;;;;;;;;14.27;52.99;99086.81;4437476;32;33835;-81
2022/09/19 01:27:48;;;;;;;;;;;;;;;14.33;53.05;99077.03;4427586;32;33240;-82
2022/09/19 01:30:18;;;;;;;;;;;;;;;14.34;53.78;99081.38;4435057;32;34555;-84
2022/09/19 01:32:54;;;;;;;;;;;;;;;14.50;54.02;99075.50;4431915;32;34808;-81
2022/09/19 01:35:26;;;;;;;;;;;;;;;14.37;54.54;99061.22;4431436;32;34169;-83
2022/09/19 01:37:55;;;;;;;;;;;;;;;14.34;54.53;99061.34;4425479;32;32979;-84
2022/09/19 01:40:25;;;;;;;;;;;;;;;14.19;55.04;99074.97;4436621;32;34813;-83
2022/09/19 01:42:59;;;;;;;;;;;;;;;14.14;54.86;99064.72;4433329;32;35029;-82
2022/09/19 01:45:39;;;;;;;;;;;;;;;14.21;54.82;99068.78;4431553;32;34609;-82
2022/09/19 01:48:14;;;;;;;;;;;;;;;14.24;54.58;99066.06;4417054;32;33362;-83
2022/09/19 01:50:50;;;;;;;;;;;;;;;14.34;54.53;99058.72;4418086;32;33751;-82
2022/09/19 01:53:29;;;;;;;;;;;;;;;14.28;54.87;99062.44;4436261;32;34282;-85
2022/09/19 01:56:10;;;;;;;;;;;;;;;14.28;54.83;99056.37;4432660;32;33626;-83
2022/09/19 01:58:41;;;;;;;;;;;;;;;14.27;54.37;99052.88;4433425;32;33820;-82
2022/09/19 02:01:16;;;;;;;;;;;;;;;14.24;55.22;99052.16;4432495;32;34489;-83
2022/09/19 02:03:53;;;;;;;;;;;;;;;14.36;55.39;99056.91;4432048;32;33754;-82
2022/09/19 02:06:26;;;;;;;;;;;;;;;14.44;55.22;99060.06;4436933;32;34837;-84
2022/09/19 02:08:59;;;;;;;;;;;;;;;14.44;55.62;99054.84;4434563;32;33103;-82
2022/09/19 02:11:33;;;;;;;;;;;;;;;14.41;55.61;99051.53;4433677;32;35035;-83
2022/09/19 02:14:17;;;;;;;;;;;;;;;14.14;56.16;99048.22;4433464;32;33907;-82
2022/09/19 02:16:51;;;;;;;;;;;;;;;14.32;55.23;99063.16;4432993;32;33787;-85
2022/09/19 02:19:21;;;;;;;;;;;;;;;14.09;54.93;99072.72;4436795;32;34179;-82
2022/09/19 02:21:54;;;;;;;;;;;;;;;14.33;54.49;99067.47;4435862;32;33382;-83
2022/09/19 02:24:23;;;;;;;;;;;;;;;14.16;55.10;99072.47;4428732;32;33874;-83
2022/09/19 02:26:54;;;;;;;;;;;;;;;14.34;54.58;99079.59;4417965;32;34257;-85
2022/09/19 02:29:30;;;;;;;;;;;;;;;14.13;55.64;99070.81;4417522;32;34081;-82
2022/09/19 02:32:02;;;;;;;;;;;;;;;13.95;57.05;99076.75;4421439;32;33694;-84
2022/09/19 02:34:34;;;;;;;;;;;;;;;14.22;56.86;99077.47;4416470;32;34310;-82
2022/09/19 02:37:04;;;;;;;;;;;;;;;14.18;57.45;99083.69;4425940;32;34799;-81
2022/09/19 02:39:36;;;;;;;;;;;;;;;14.01;58.34;99081.72;4431326;32;33096;-82
2022/09/19 02:42:06;;;;;;;;;;;;;;;14.25;57.57;99087.78;4431916;32;34071;-84
2022/09/19 02:44:40;;;;;;;;;;;;;;;14.06;58.39;99090.22;4436728;32;34292;-83
2022/09/19 02:47:12;;;;;;;;;;;;;;;14.25;58.15;99086.00;4431123;32;34405;-84
2022/09/19 02:49:46;;;;;;;;;;;;;;;14.24;56.91;99084.31;4428981;32;34295;-83
2022/09/19 02:52:20;;;;;;;;;;;;;;;14.19;57.34;99077.59;4430529;32;34637;-82
2022/09/19 02:54:52;;;;;;;;;;;;;;;14.28;56.79;99074.62;4436763;32;34906;-81
2022/09/19 02:57:21;;;;;;;;;;;;;;;14.20;56.89;99077.50;4436098;32;33527;-84
2022/09/19 02:59:51;;;;;;;;;;;;;;;14.24;56.53;99073.03;4435784;32;35188;-84
2022/09/19 03:02:26;;;;;;;;;;;;;;;14.28;55.94;99065.03;4432290;32;33905;-82
2022/09/19 03:04:59;;;;;;;;;;;;;;;14.32;55.68;99065.75;4432448;32;34474;-85
2022/09/19 03:07:37;;;;;;;;;;;;;;;14.49;54.32;99063.34;4436014;32;33715;-84
2022/09/19 03:10:10;;;;;;;;;;;;;;;14.23;55.42;99056.53;4435942;32;33963;-83
2022/09/19 03:12:41;;;;;;;;;;;;;;;13.97;56.02;99065.34;4431894;32;33504;-83
2022/09/19 03:15:10;;;;;;;;;;;;;;;14.33;55.32;99058.78;4430119;32;34340;-80
2022/09/19 03:17:43;;;;;;;;;;;;;;;14.25;56.62;99064.28;4431579;32;34384;-80
2022/09/19 03:20:22;;;;;;;;;;;;;;;14.30;57.46;99065.84;4431472;32;33337;-83
2022/09/19 03:22:53;;;;;;;;;;;;;;;14.33;58.29;99072.69;4418099;32;33984;-84
2022/09/19 03:25:25;;;;;;;;;;;;;;;14.32;59.15;99070.97;4415444;32;33929;-81
2022/09/19 03:27:56;;;;;;;;;;;;;;;14.32;58.08;99075.34;4423582;32;34184;-83
2022/09/19 03:30:24;;;;;;;;;;;;;;;14.27;58.55;99060.72;4431943;32;33083;-81
2022/09/19 03:32:56;;;;;;;;;;;;;;;14.20;59.15;99061.00;4436503;32;33622;-82
2022/09/19 03:35:27;;;;;;;;;;;;;;;14.12;59.56;99063.91;4431593;32;34716;-82
2022/09/19 03:37:56;;;;;;;;;;;;;;;14.22;59.53;99062.66;4431179;32;34677;-82
2022/09/19 03:40:25;;;;;;;;;;;;;;;14.16;59.95;99064.63;4433512;32;32939;-80
2022/09/19 03:42:55;;;;;;;;;;;;;;;14.03;59.54;99070.31;4436320;32;34407;-82
2022/09/19 03:45:25;;;;;;;;;;;;;;;13.95;60.24;99072.38;4431079;32;35241;-81
2022/09/19 03:47:56;;;;;;;;;;;;;;;13.83;60.54;99071.06;4432017;32;34663;-81
2022/09/19 03:50:29;;;;;;;;;;;;;;;13.79;60.92;99066.00;4435673;32;33540;-81
2022/09/19 03:52:59;;;;;;;;;;;;;;;13.96;60.61;99076.66;4431446;32;32389;-83
2022/09/19 03:55:28;;;;;;;;;;;;;;;13.92;60.42;99076.84;4436498;32;33676;-83
2022/09/19 03:58:04;;;;;;;;;;;;;;;13.79;60.96;99073.84;4433727;32;34400;-83
2022/09/19 04:00:32;;;;;;;;;;;;;;;13.97;60.52;99069.72;4433971;32;33861;-83
2022/09/19 04:03:07;;;;;;;;;;;;;;;13.91;61.09;99073.38;4425065;32;286098;-80
2022/09/19 04:05:37;;;;;;;;;;;;;;;13.75;60.79;99070.50;4436046;32;33572;-82
2022/09/19 04:08:16;;;;;;;;;;;;;;;13.96;60.60;99075.81;4438119;32;34416;-83
2022/09/19 04:10:45;;;;;;;;;;;;;;;14.04;60.61;99077.25;4432072;32;33453;-81
2022/09/19 04:13:17;;;;;;;;;;;;;;;13.93;60.79;99084.63;4427314;32;33841;-80
2022/09/19 04:15:50;;;;;;;;;;;;;;;13.95;61.34;99077.59;4432363;32;34163;-83
2022/09/19 04:18:19;;;;;;;;;;;;;;;14.02;61.29;99079.06;4436373;32;34208;-82
2022/09/19 04:20:51;;;;;;;;;;;;;;;14.14;61.37;99084.75;4434392;32;32912;-81
2022/09/19 04:23:20;;;;;;;;;;;;;;;14.24;60.91;99086.09;4422805;32;34741;-82
2022/09/19 04:25:48;;;;;;;;;;;;;;;14.08;61.42;99084.03;4432696;32;33924;-83
2022/09/19 04:28:21;;;;;;;;;;;;;;;14.18;61.32;99083.69;4432706;32;34800;-82
2022/09/19 04:30:51;;;;;;;;;;;;;;;14.27;60.85;99072.91;4432568;32;33334;-82
2022/09/19 04:33:23;;;;;;;;;;;;;;;14.23;60.87;99079.16;4420472;32;33442;-85
2022/09/19 04:36:00;;;;;;;;;;;;;;;14.32;60.46;99075.34;4430435;32;33863;-81
2022/09/19 04:38:30;;;;;;;;;;;;;;;14.38;59.48;99065.53;4416497;32;34124;-83
2022/09/19 04:41:06;;;;;;;;;;;;;;;14.30;59.62;99072.78;4431508;32;34092;-82
2022/09/19 04:43:36;;;;;;;;;;;;;;;14.47;59.30;99065.19;4435764;32;33733;-83
2022/09/19 04:46:10;;;;;;;;;;;;;;;14.39;59.97;99067.22;4424008;32;33654;-81
2022/09/19 04:48:39;;;;;;;;;;;;;;;14.33;59.91;99070.09;4432480;32;33674;-82
2022/09/19 04:51:11;;;;;;;;;;;;;;;14.12;61.19;99070.91;4426015;32;32904;-81
2022/09/19 04:53:41;;;;;;;;;;;;;;;14.36;60.21;99072.56;4432346;32;34714;-81
2022/09/19 04:56:10;;;;;;;;;;;;;;;14.33;60.31;99070.09;4431201;32;33942;-84
2022/09/19 04:58:41;;;;;;;;;;;;;;;14.36;59.92;99072.56;4429227;32;34054;-81
2022/09/19 05:01:11;;;;;;;;;;;;;;;14.37;59.31;99082.09;4427737;32;32462;-82
2022/09/19 05:03:48;;;;;;;;;;;;;;;14.09;60.70;99088.34;4428314;32;33605;-83
2022/09/19 05:06:18;;;;;;;;;;;;;;;14.13;60.86;99086.47;4433999;32;34739;-82
2022/09/19 05:08:55;;;;;;;;;;;;;;;14.57;59.90;99090.94;4430797;32;34998;-83
2022/09/19 05:11:25;;;;;;;;;;;;;;;14.59;60.13;99100.41;4433235;32;33601;-82
2022/09/19 05:13:56;;;;;;;;;;;;;;;14.22;61.13;99095.72;4428877;32;33355;-82
2022/09/19 05:16:27;;;;;;;;;;;;;;;14.47;60.67;99111.28;4428197;32;34026;-83
2022/09/19 05:18:59;;;;;;;;;;;;;;;14.07;62.47;99107.59;4434761;32;35118;-86
2022/09/19 05:21:32;;;;;;;;;;;;;;;14.01;63.19;99113.88;4432976;32;33846;-82
2022/09/19 05:24:01;;;;;;;;;;;;;;;14.07;63.16;99129.28;4430167;32;33466;-83
2022/09/19 05:26:33;;;;;;;;;;;;;;;14.01;64.04;99132.16;4429775;32;33741;-82
2022/09/19 05:29:02;;;;;;;;;;;;;;;14.21;63.62;99135.78;4437490;32;35039;-80
2022/09/19 05:31:35;;;;;;;;;;;;;;;13.96;64.46;99141.84;4433071;32;34048;-83
2022/09/19 05:34:04;;;;;;;;;;;;;;;13.71;65.23;99141.88;4432928;32;33523;-81
2022/09/19 05:36:38;;;;;;;;;;;;;;;13.61;65.22;99146.56;4432599;32;33387;-83
2022/09/19 05:39:07;;;;;;;;;;;;;;;13.53;65.59;99142.50;4419124;32;34434;-81
2022/09/19 05:41:37;;;;;;;;;;;;;;;13.72;65.78;99140.97;4422530;32;32976;-81
2022/09/19 05:44:07;;;;;;;;;;;;;;;13.72;65.23;99146.19;4425422;32;33956;-82
2022/09/19 05:46:39;;;;;;;;;;;;;;;13.63;66.33;99149.13;4432780;32;33817;-82
2022/09/19 05:49:08;;;;;;;;;;;;;;;13.71;65.52;99148.88;4437391;32;35088;-81
2022/09/19 05:51:38;;;;;;;;;;;;;;;13.59;65.27;99150.97;4437753;32;33081;-83
2022/09/19 05:54:10;;;;;;;;;;;;;;;13.64;66.06;99153.44;4437508;32;34860;-83
2022/09/19 05:56:45;;;;;;;;;;;;;;;13.54;65.25;99147.69;4432264;32;34213;-82
2022/09/19 05:59:13;;;;;;;;;;;;;;;13.47;65.54;99153.16;4429145;32;35087;-84
2022/09/19 06:01:42;;;;;;;;;;;;;;;13.22;66.48;99146.97;4429409;32;33510;-85
2022/09/19 06:04:12;;;;;;;;;;;;;;;13.33;66.50;99154.44;4434214;32;33549;-82
2022/09/19 06:06:44;;;;;;;;;;;;;;;13.13;67.54;99155.06;4428654;32;34571;-84
2022/09/19 06:09:12;;;;;;;;;;;;;;;13.12;67.04;99155.13;4428486;32;35440;-82
2022/09/19 06:11:41;;;;;;;;;;;;;;;12.98;67.88;99156.41;4430058;32;33396;-82
2022/09/19 06:14:17;;;;;;;;;;;;;;;13.21;67.12;99154.81;4434992;32;34271;-84
2022/09/19 06:16:47;;;;;;;;;;;;;;;13.12;67.55;99156.00;4435874;32;33951;-81
2022/09/19 06:19:20;;;;;;;;;;;;;;;12.94;68.32;99161.78;4430178;32;34057;-82
2022/09/19 06:21:58;;;;;;;;;;;;;;;13.02;67.76;99159.75;4427801;32;34039;-83
2022/09/19 06:24:30;;;;;;;;;;;;;;;13.43;66.11;99163.69;4430903;32;33124;-84
2022/09/19 06:26:58;;;;;;;;;;;;;;;13.11;67.11;99159.47;4436249;32;35277;-84
2022/09/19 06:29:34;;;;;;;;;;;;;;;13.26;67.02;99165.09;4429980;32;34682;-82
2022/09/19 06:32:11;;;;;;;;;;;;;;;13.12;67.49;99170.75;4422825;32;33542;-84
2022/09/19 06:34:42;;;;;;;;;;;;;;;13.36;65.99;99174.34;4427171;32;33857;-82
2022/09/19 06:37:27;;;;;;;;;;;;;;;12.81;68.66;99169.13;4431180;32;34900;-82
2022/09/19 06:39:56;;;;;;;;;;;;;;;12.82;68.90;99176.84;4433783;32;34313;-84
2022/09/19 06:42:26;;;;;;;;;;;;;;;13.05;67.82;99175.31;4424153;32;32917;-84
2022/09/19 06:44:59;;;;;;;;;;;;;;;13.08;67.67;99185.63;4422168;32;34460;-82
2022/09/19 06:47:28;;;;;;;;;;;;;;;12.94;68.48;99190.41;4428592;32;33343;-83
2022/09/19 06:50:00;;;;;;;;;;;;;;;12.71;69.45;99185.87;4424690;32;35059;-83
2022/09/19 06:52:32;;;;;;;;;;;;;;;12.83;69.14;99185.53;4434586;32;33972;-83
2022/09/19 06:55:03;;;;;;;;;;;;;;;12.52;69.75;99190.81;4431349;32;34795;-82
2022/09/19 06:57:32;;;;;;;;;;;;;;;12.53;70.73;99189.91;4428604;32;35082;-83
2022/09/19 07:00:03;;;;;;;;;;;;;;;12.41;71.15;99183.28;4432099;32;34997;-85
2022/09/19 07:02:32;;;;;;;;;;;;;;;12.30;71.92;99180.16;4428711;32;32786;-83
2022/09/19 07:05:00;;;;;;;;;;;;;;;12.38;71.98;99181.62;4433746;32;33746;-83
2022/09/19 07:07:34;;;;;;;;;;;;;;;12.45;71.06;99181.47;4427624;32;33770;-85
2022/09/19 07:10:07;;;;;;;;;;;;;;;12.33;72.13;99193.94;4431512;32;36718;-83
2022/09/19 07:12:36;;;;;;;;;;;;;;;12.36;71.86;99193.81;4427979;32;34272;-83
2022/09/19 07:15:08;;;;;;;;;;;;;;;12.07;72.78;99189.44;4428677;32;35143;-83
2022/09/19 07:17:40;;;;;;;;;;;;;;;12.45;71.34;99190.12;4421649;32;33857;-83
2022/09/19 07:20:17;;;;;;;;;;;;;;;12.37;71.59;99187.75;4428095;32;33862;-86
2022/09/19 07:23:01;;;;;;;;;;;;;;;12.41;71.55;99190.25;4428607;32;34185;-83
2022/09/19 07:25:30;;;;;;;;;;;;;;;12.36;72.05;99196.44;4429559;32;33759;-83
2022/09/19 07:28:02;;;;;;;;;;;;;;;12.32;72.50;99186.16;4431613;32;34858;-84
2022/09/19 07:30:34;;;;;;;;;;;;;;;12.32;73.12;99192.22;4428802;32;33981;-85
2022/09/19 07:33:03;;;;;;;;;;;;;;;12.82;70.24;99189.03;4427615;32;33858;-85
2022/09/19 07:35:34;;;;;;;;;;;;;;;12.56;70.71;99200.22;4432115;32;33146;-84
2022/09/19 07:38:06;;;;;;;;;;;;;;;12.65;71.28;99191.28;4426399;32;35056;-83
2022/09/19 07:40:37;;;;;;;;;;;;;;;12.91;70.99;99193.13;4435486;32;34558;-86
2022/09/19 07:43:06;;;;;;;;;;;;;;;13.05;69.45;99195.25;4430837;32;33381;-84
2022/09/19 07:45:37;;;;;;;;;;;;;;;12.98;70.42;99194.63;4422863;32;33757;-86
2022/09/19 07:48:06;;;;;;;;;;;;;;;13.00;70.14;99196.28;4428613;32;34413;-84
2022/09/19 07:50:40;;;;;;;;;;;;;;;13.04;71.30;99194.41;4436212;32;34875;-84
2022/09/19 07:53:14;;;;;;;;;;;;;;;13.33;69.66;99192.69;4437051;32;33313;-87
2022/09/19 07:55:48;;;;;;;;;;;;;;;13.08;69.79;99201.25;4406170;32;32951;-85
2022/09/19 07:58:17;;;;;;;;;;;;;;;13.16;70.89;99214.88;4425747;32;34114;-84
2022/09/19 08:00:48;;;;;;;;;;;;;;;13.22;69.23;99224.25;4427941;32;34913;-83
2022/09/19 08:03:20;;;;;;;;;;;;;;;13.18;68.07;99223.50;4433741;32;33352;-82
2022/09/19 08:05:50;;;;;;;;;;;;;;;13.16;67.87;99235.72;4421635;32;34863;-82
2022/09/19 08:08:28;;;;;;;;;;;;;;;13.27;68.29;99230.22;4423054;32;34229;-83
2022/09/19 08:11:00;;;;;;;;;;;;;;;13.36;67.75;99229.03;4428464;32;34615;-83
2022/09/19 08:13:30;;;;;;;;;;;;;;;13.43;66.46;99233.16;4422208;32;33234;-83
2022/09/19 08:15:59;;;;;;;;;;;;;;;13.59;64.83;99223.94;4431175;32;32784;-82
2022/09/19 08:18:36;;;;;;;;;;;;;;;13.42;63.16;99224.50;4422216;32;34980;-84
2022/09/19 08:21:04;;;;;;;;;;;;;;;13.52;64.06;99234.62;4426694;32;34902;-85
2022/09/19 08:23:40;;;;;;;;;;;;;;;13.73;60.68;99220.91;4426873;32;33138;-82
2022/09/19 08:26:10;;;;;;;;;;;;;;;13.17;61.06;99231.37;4425831;32;34461;-83
2022/09/19 08:28:40;;;;;;;;;;;;;;;13.42;63.33;99234.06;4437061;32;33605;-84
2022/09/19 08:31:15;;;;;;;;;;;;;;;13.13;59.29;99238.41;4440023;32;33418;-81
2022/09/19 08:33:45;;;;;;;;;;;;;;;12.94;60.08;99238.13;4427940;32;33270;-82
2022/09/19 08:36:16;;;;;;;;;;;;;;;12.77;59.86;99256.84;4430248;32;33964;-81
2022/09/19 08:38:47;;;;;;;;;;;;;;;12.84;59.57;99254.06;4433193;32;34776;-83
2022/09/19 08:41:27;;;;;;;;;;;;;;;12.82;60.51;99254.09;4434040;32;34621;-81
2022/09/19 08:44:01;;;;;;;;;;;;;;;12.94;59.69;99248.53;4426939;32;33597;-83
2022/09/19 08:46:35;;;;;;;;;;;;;;;13.11;59.84;99253.22;4429433;32;33648;-82
2022/09/19 08:49:13;;;;;;;;;;;;;;;12.99;59.00;99257.06;4430696;32;33569;-83
2022/09/19 08:51:46;;;;;;;;;;;;;;;13.13;58.11;99245.38;4430396;32;33242;-82
2022/09/19 08:54:16;;;;;;;;;;;;;;;13.28;57.51;99250.12;4433564;32;33807;-81
2022/09/19 08:56:45;;;;;;;;;;;;;;;13.40;58.48;99241.94;4429252;32;33773;-81
2022/09/19 08:59:15;;;;;;;;;;;;;;;13.70;56.07;99247.06;4429607;32;33866;-82
2022/09/19 09:01:48;;;;;;;;;;;;;;;13.56;55.13;99254.50;4430143;32;34073;-82
2022/09/19 09:04:38;;;;;;;;;;;;;;;13.70;55.45;99259.22;4431836;32;34073;-82
2022/09/19 09:07:15;;;;;;;;;;;;;;;13.44;55.34;99253.97;4439683;32;33558;-83
2022/09/19 09:10:02;;;;;;;;;;;;;;;13.78;56.11;99260.69;4426854;32;34642;-84
2022/09/19 09:12:38;;;;;;;;;;;;;;;13.85;55.42;99263.97;4432450;32;34285;-85
2022/09/19 09:15:13;;;;;;;;;;;;;;;14.09;53.46;99276.16;4426687;32;32868;-83
2022/09/19 09:17:56;;;;;;;;;;;;;;;13.81;55.49;99270.16;4425993;32;33232;-85
2022/09/19 09:20:28;;;;;;;;;;;;;;;14.06;54.02;99284.09;4432388;32;33527;-86
2022/09/19 09:23:04;;;;;;;;;;;;;;;14.09;53.40;99284.00;4428426;32;33871;-82
2022/09/19 09:25:33;;;;;;;;;;;;;;;13.99;52.96;99289.56;4428496;32;32412;-82
2022/09/19 09:28:08;;;;;;;;;;;;;;;14.21;52.60;99280.09;4430472;32;33391;-83
2022/09/19 09:30:40;;;;;;;;;;;;;;;14.35;51.24;99277.00;4428436;32;34783;-86
2022/09/19 09:33:16;;;;;;;;;;;;;;;14.41;52.23;99268.97;4433821;32;32945;-82
2022/09/19 09:35:47;;;;;;;;;;;;;;;14.26;50.80;99270.37;4428442;32;32830;-82
2022/09/19 09:38:21;;;;;;;;;;;;;;;14.11;51.84;99270.91;4428790;32;34765;-83
2022/09/19 09:43:45;;;;;;;;;;;;;;;14.30;49.97;99276.31;4428776;32;32847;-84
2022/09/19 09:46:18;;;;;;;;;;;;;;;14.08;51.65;99278.81;4433826;32;33915;-83
2022/09/19 09:48:52;;;;;;;;;;;;;;;14.12;53.05;99282.19;4427976;32;33294;-83
2022/09/19 09:51:28;;;;;;;;;;;;;;;14.27;51.94;99276.44;4425654;32;33976;-83
2022/09/19 09:56:14;;;;;;;;;;;;;;;14.60;49.84;99281.41;4426704;32;34265;-83
2022/09/19 09:56:58;;;;;;;;;;;;;;;14.43;51.52;99282.81;4428542;32;34280;-82
2022/09/19 10:05:10;;;;;;;;;;;;;;;14.78;50.56;99288.53;4432798;32;34630;-83
2022/09/19 10:07:42;;;;;;;;;;;;;;;15.01;49.99;99292.09;4426295;32;33165;-82
2022/09/19 10:10:12;;;;;;;;;;;;;;;14.84;52.46;99304.00;4428119;32;36543;-85
2022/09/19 10:12:43;;;;;;;;;;;;;;;13.98;60.27;99317.38;4426620;32;34532;-82
2022/09/19 10:15:23;;;;;;;;;;;;;;;14.25;62.22;99306.94;4429999;32;33870;-80
2022/09/19 10:17:55;;;;;;;;;;;;;;;13.85;64.11;99306.53;4432920;32;33136;-81
2022/09/19 10:20:29;;;;;;;;;;;;;;;13.54;64.29;99301.44;4422751;32;33212;-82
2022/09/19 10:23:02;;;;;;;;;;;;;;;13.50;66.08;99312.84;4428293;32;33897;-84
2022/09/19 10:25:38;;;;;;;;;;;;;;;13.43;65.83;99308.72;4424390;32;34909;-81
2022/09/19 10:28:16;;;;;;;;;;;;;;;13.55;65.65;99300.53;4433755;32;33358;-85
2022/09/19 10:30:54;;;;;;;;;;;;;;;13.51;65.57;99300.69;4434681;32;34743;-82
2022/09/19 10:33:39;;;;;;;;;;;;;;;13.93;63.12;99302.81;4425309;32;34390;-82
2022/09/19 10:36:16;;;;;;;;;;;;;;;14.15;61.94;99295.97;4425971;32;34981;-82
2022/09/19 10:38:49;;;;;;;;;;;;;;;14.29;59.26;99295.50;4426123;32;33179;-81
2022/09/19 10:41:19;;;;;;;;;;;;;;;14.34;56.23;99290.13;4427718;32;33507;-82
2022/09/19 10:43:50;;;;;;;;;;;;;;;14.21;56.85;99289.69;4431429;32;34463;-82
2022/09/19 10:46:21;;;;;;;;;;;;;;;14.44;55.71;99278.44;4428033;32;33915;-83
2022/09/19 10:48:56;;;;;;;;;;;;;;;14.49;56.63;99282.59;4422770;32;33860;-85
2022/09/19 10:51:29;;;;;;;;;;;;;;;14.70;55.97;99285.37;4428051;32;34570;-84
2022/09/19 10:53:58;;;;;;;;;;;;;;;14.80;52.82;99281.50;4428711;32;33821;-85
2022/09/19 10:56:29;;;;;;;;;;;;;;;14.73;52.63;99275.66;4434157;32;33537;-82
2022/09/19 10:59:03;;;;;;;;;;;;;;;14.82;53.32;99278.84;4419872;32;32911;-83
2022/09/19 11:01:34;;;;;;;;;;;;;;;15.45;52.92;99279.06;4421952;32;33631;-81
2022/09/19 11:04:04;;;;;;;;;;;;;;;15.47;50.89;99282.47;4419021;32;34165;-84
2022/09/19 11:06:34;;;;;;;;;;;;;;;15.54;49.37;99286.53;4423372;32;33705;-84
2022/09/19 11:09:06;;;;;;;;;;;;;;;15.04;50.66;99279.75;4426041;32;33252;-85
2022/09/19 11:11:45;;;;;;;;;;;;;;;15.20;51.92;99287.84;4418782;32;34749;-83
2022/09/19 11:14:28;;;;;;;;;;;;;;;15.26;51.80;99326.81;4423418;32;33919;-82
2022/09/19 11:17:15;;;;;;;;;;;;;;;13.74;61.76;99365.97;4416915;32;33752;-83
2022/09/19 11:20:11;;;;;;;;;;;;;;;12.42;69.06;99348.03;4414619;32;33753;-84
2022/09/19 11:22:55;;;;;;;;;;;;;;;11.94;71.73;99355.28;4407236;32;33593;-83
2022/09/19 11:25:26;;;;;;;;;;;;;;;11.70;73.07;99354.09;4422574;32;33600;-83
2022/09/19 11:28:06;;;;;;;;;;;;;;;11.90;72.28;99353.66;4417855;32;34292;-84
2022/09/19 11:30:43;;;;;;;;;;;;;;;12.01;69.53;99347.31;4421685;32;33032;-84
2022/09/19 11:33:35;;;;;;;;;;;;;;;11.99;70.94;99343.94;4416670;32;33344;-84
2022/09/19 11:36:30;;;;;;;;;;;;;;;12.00;71.40;99336.09;4416378;32;33944;-84
2022/09/19 11:39:04;;;;;;;;;;;;;;;12.46;71.00;99329.69;4422922;32;34123;-83
2022/09/19 11:41:56;;;;;;;;;;;;;;;12.41;71.02;99334.19;4418952;32;32959;-86
2022/09/19 11:44:42;;;;;;;;;;;;;;;12.93;70.76;99332.75;4423284;32;34333;-84
2022/09/19 11:47:23;;;;;;;;;;;;;;;13.19;71.97;99346.75;4413168;32;34099;-86
2022/09/19 11:49:57;;;;;;;;;;;;;;;13.03;69.51;99336.81;4419610;32;33446;-85
2022/09/19 11:52:29;;;;;;;;;;;;;;;12.91;69.73;99331.94;4424711;32;34166;-85
2022/09/19 11:55:06;;;;;;;;;;;;;;;13.20;70.20;99327.66;4415913;32;33862;-85
2022/09/19 11:57:39;;;;;;;;;;;;;;;13.30;67.68;99334.31;4422424;32;32548;-86
2022/09/19 12:00:13;;;;;;;;;;;;;;;12.94;68.07;99344.03;4421676;32;33844;-84
2022/09/19 12:03:01;;;;;;;;;;;;;;;12.89;66.76;99338.09;4421028;32;33093;-85
2022/09/19 12:05:32;;;;;;;;;;;;;;;12.76;68.10;99348.00;4417768;32;33160;-85
2022/09/19 12:08:06;;;;;;;;;;;;;;;12.70;67.87;99349.00;4419098;32;33681;-85
2022/09/19 12:10:37;;;;;;;;;;;;;;;13.02;66.66;99355.06;4423731;32;34087;-86
2022/09/19 12:13:12;;;;;;;;;;;;;;;12.53;66.58;99356.41;4415648;32;32847;-87
2022/09/19 12:15:49;;;;;;;;;;;;;;;12.46;69.31;99360.06;4416641;32;33836;-84
2022/09/19 12:18:19;;;;;;;;;;;;;;;12.67;68.95;99358.66;4418623;32;34106;-83
2022/09/19 12:20:53;;;;;;;;;;;;;;;12.99;65.33;99353.41;4419718;32;35087;-84
2022/09/19 12:26:13;;;;;;;;;;;;;;;12.90;66.67;99358.88;4424832;32;34018;-83
2022/09/19 12:28:42;;;;;;;;;;;;;;;13.01;64.98;99345.56;4419526;32;33900;-83
2022/09/19 12:31:22;;;;;;;;;;;;;;;13.19;64.81;99352.84;4428940;32;34094;-84
2022/09/19 12:33:54;;;;;;;;;;;;;;;13.23;64.12;99356.19;4424669;32;33003;-84
2022/09/19 12:36:25;;;;;;;;;;;;;;;13.14;63.18;99354.69;4427137;32;33876;-82
2022/09/19 12:38:56;;;;;;;;;;;;;;;13.32;62.46;99358.56;4419897;32;34047;-84
2022/09/19 12:41:27;;;;;;;;;;;;;;;13.37;61.97;99363.66;4416352;32;34357;-82
2022/09/19 12:43:59;;;;;;;;;;;;;;;13.32;62.66;99357.72;4415349;32;32745;-83
2022/09/19 12:46:33;;;;;;;;;;;;;;;13.49;62.86;99360.66;4431507;32;34635;-82
2022/09/19 12:49:12;;;;;;;;;;;;;;;13.57;62.39;99352.59;4431905;32;33704;-83
2022/09/19 12:51:47;;;;;;;;;;;;;;;13.81;61.23;99357.06;4432417;32;34436;-84
2022/09/19 12:54:16;;;;;;;;;;;;;;;13.75;62.55;99359.00;4417298;32;34340;-87
2022/09/19 12:56:54;;;;;;;;;;;;;;;14.02;58.95;99352.91;4428407;32;34638;-83
2022/09/19 12:59:27;;;;;;;;;;;;;;;13.66;60.35;99362.75;4432151;32;34084;-84
2022/09/19 13:01:56;;;;;;;;;;;;;;;13.94;59.54;99360.16;4434607;32;34047;-84
2022/09/19 13:04:29;;;;;;;;;;;;;;;13.96;59.79;99360.91;4428770;32;32943;-84
2022/09/19 13:06:59;;;;;;;;;;;;;;;13.94;59.15;99352.31;4424720;32;33767;-85
2022/09/19 13:09:28;;;;;;;;;;;;;;;13.87;58.65;99353.41;4430279;32;33930;-84
2022/09/19 13:12:06;;;;;;;;;;;;;;;14.08;58.65;99351.84;4434637;32;33998;-83
2022/09/19 13:14:45;;;;;;;;;;;;;;;14.63;60.11;99338.72;4431885;32;32945;-87
2022/09/19 13:25:37;;;;;;;;;;;;;;;15.66;52.50;99340.09;4418323;32;33797;-86
2022/09/19 13:28:34;;;;;;;;;;;;;;;15.78;52.30;99343.09;4429612;32;34398;-84
2022/09/19 13:31:11;;;;;;;;;;;;;;;15.95;54.25;99341.59;4432466;32;34006;-86
2022/09/19 13:33:44;;;;;;;;;;;;;;;16.25;50.94;99336.81;4421668;32;33740;-87
2022/09/19 13:36:18;;;;;;;;;;;;;;;15.87;50.73;99344.47;4425466;32;32652;-85
2022/09/19 13:38:51;;;;;;;;;;;;;;;15.84;51.83;99352.47;4426271;32;34163;-87
2022/09/19 13:41:22;;;;;;;;;;;;;;;15.01;52.93;99347.78;4427928;32;33338;-86